Foster, Wisconsin
Current Conditions -  °F | °C
As of 11:56 AM on Saturday 25 Oct 2014 (Local Time) from KEAU Reporting Station
Clear Clear  
Wind Chill: 59°   Ceiling: Unl
Heat Index: 59°   Visibility: 10mi
Dew Point: 31°   Wind: 17mph
Humidity: 35%   Direction: 290°WNW
Pressure: 29.99"   Gusts: 24mph
Location:  44.5464°N, 91.2123°W
Report Text: KEAU 251656Z 29015G21KT 10SM CLR 15/M01 A2999 RMK AO2 SLP157 T01501006
Loading
Personal Weather Stations






























Interactive Weather Map
Tropical Storm Tracking
New forecast layout! Learn more

10-Day Weather Forecast

Advertisements
Track Severe Weather on mobile